createdAt,value
2022-11-29T00:00:15.212Z,2.45
2022-11-29T00:02:42.034Z,2.47
2022-11-29T00:05:09.022Z,2.42
2022-11-29T00:07:35.771Z,2.44
2022-11-29T00:10:02.847Z,2.39
2022-11-29T00:12:29.543Z,2.36
2022-11-29T00:14:56.204Z,2.38
2022-11-29T00:17:22.924Z,2.36
2022-11-29T00:19:49.590Z,2.39
2022-11-29T00:22:16.269Z,2.38
2022-11-29T00:24:43.904Z,2.38
2022-11-29T00:27:10.881Z,2.40
2022-11-29T00:29:37.603Z,2.37
2022-11-29T00:32:04.569Z,2.32
2022-11-29T00:34:31.276Z,2.34
2022-11-29T00:36:58.006Z,2.29
2022-11-29T00:39:24.962Z,2.30
2022-11-29T00:41:51.856Z,2.24
2022-11-29T00:44:20.590Z,2.28
2022-11-29T00:46:48.277Z,2.25
2022-11-29T00:49:15.174Z,2.22
2022-11-29T00:51:41.916Z,2.30
2022-11-29T00:54:08.740Z,2.29
2022-11-29T00:56:35.448Z,2.26
2022-11-29T00:59:02.059Z,2.20
2022-11-29T01:01:28.901Z,2.13
2022-11-29T01:03:55.595Z,2.17
2022-11-29T01:06:22.318Z,2.11
2022-11-29T01:08:49.651Z,2.12
2022-11-29T01:11:19.808Z,2.11
2022-11-29T01:13:46.753Z,2.15
2022-11-29T01:16:14.831Z,2.13
2022-11-29T01:18:42.103Z,2.09
2022-11-29T01:21:12.528Z,2.12
2022-11-29T01:23:40.456Z,2.13
2022-11-29T01:26:10.091Z,2.01
2022-11-29T01:28:37.738Z,1.95
2022-11-29T01:31:09.918Z,1.94
2022-11-29T01:33:37.033Z,1.93
2022-11-29T01:36:05.461Z,1.89
2022-11-29T01:38:32.349Z,1.89
2022-11-29T01:41:14.326Z,1.88
2022-11-29T01:44:03.882Z,1.86
2022-11-29T01:46:36.319Z,1.89
2022-11-29T01:49:19.475Z,1.88
2022-11-29T01:51:50.445Z,1.96
2022-11-29T01:54:18.034Z,1.96
2022-11-29T01:56:49.224Z,1.96
2022-11-29T01:59:19.345Z,1.93
2022-11-29T02:01:46.179Z,1.92
2022-11-29T02:04:13.846Z,1.94
2022-11-29T02:06:41.650Z,1.92
2022-11-29T02:09:23.082Z,1.92
2022-11-29T02:12:07.812Z,1.86
2022-11-29T02:14:40.574Z,1.87
2022-11-29T02:17:42.533Z,1.83
2022-11-29T02:20:18.269Z,1.77
2022-11-29T02:23:12.660Z,1.71
2022-11-29T02:26:03.395Z,1.78
2022-11-29T02:28:36.199Z,1.75
2022-11-29T02:31:28.485Z,1.77
2022-11-29T02:34:06.574Z,1.75
2022-11-29T02:36:38.861Z,1.72
2022-11-29T02:39:26.624Z,1.68
2022-11-29T02:42:11.357Z,1.66
2022-11-29T02:44:56.047Z,1.70
2022-11-29T02:47:44.262Z,1.67
2022-11-29T02:50:23.031Z,1.63
2022-11-29T02:52:55.936Z,1.69
2022-11-29T02:55:35.168Z,1.61
2022-11-29T02:58:17.149Z,1.62
2022-11-29T03:00:58.816Z,1.60
2022-11-29T03:03:33.141Z,1.55
2022-11-29T03:06:51.803Z,1.60
2022-11-29T03:09:46.677Z,1.57
2022-11-29T03:12:30.331Z,1.59
2022-11-29T03:15:13.260Z,1.63
2022-11-29T03:18:10.843Z,1.58
2022-11-29T03:20:57.210Z,1.57
2022-11-29T03:23:53.761Z,1.56
2022-11-29T03:26:35.621Z,1.56
2022-11-29T03:29:11.959Z,1.55
2022-11-29T03:31:56.734Z,1.54
2022-11-29T03:34:45.505Z,1.54
2022-11-29T03:37:33.432Z,1.48
2022-11-29T03:40:07.354Z,1.49
2022-11-29T03:42:43.130Z,1.48
2022-11-29T03:45:25.180Z,1.53
2022-11-29T03:47:59.830Z,1.54
2022-11-29T03:50:37.772Z,1.54
2022-11-29T03:53:30.920Z,1.50
2022-11-29T03:56:00.965Z,1.49
2022-11-29T03:59:18.706Z,1.55
2022-11-29T04:01:59.747Z,1.49
2022-11-29T04:05:05.092Z,1.44
2022-11-29T04:08:00.417Z,1.42
2022-11-29T04:10:58.469Z,1.39
2022-11-29T04:14:06.778Z,1.40
2022-11-29T04:16:42.481Z,1.42
2022-11-29T04:19:30.549Z,1.42
2022-11-29T04:21:57.234Z,1.44
2022-11-29T04:24:42.475Z,1.47
2022-11-29T04:27:22.472Z,1.40
2022-11-29T04:30:34.283Z,1.42
2022-11-29T04:33:00.831Z,1.44
2022-11-29T04:35:49.102Z,1.45
2022-11-29T04:38:29.855Z,1.37
2022-11-29T04:41:33.771Z,1.26
2022-11-29T04:44:00.474Z,1.28
2022-11-29T04:46:49.970Z,1.18
2022-11-29T04:49:28.456Z,1.21
2022-11-29T04:52:22.546Z,1.16
2022-11-29T04:55:30.868Z,1.10
2022-11-29T04:58:13.199Z,1.06
2022-11-29T05:00:53.596Z,1.04
2022-11-29T05:03:38.827Z,1.04
2022-11-29T05:06:20.345Z,0.97
2022-11-29T05:09:01.211Z,0.96
2022-11-29T05:11:27.912Z,0.96
2022-11-29T05:14:15.860Z,0.91
2022-11-29T05:16:53.665Z,0.98
2022-11-29T05:19:58.082Z,0.94
2022-11-29T05:22:58.600Z,0.96
2022-11-29T05:25:57.527Z,0.92
2022-11-29T05:28:59.952Z,0.92
2022-11-29T05:31:47.945Z,0.98
2022-11-29T05:34:39.279Z,0.98
2022-11-29T05:37:14.968Z,0.92
2022-11-29T05:40:15.756Z,0.94
2022-11-29T05:43:10.070Z,0.97
2022-11-29T05:45:56.427Z,0.97
2022-11-29T05:48:23.170Z,0.98
2022-11-29T05:51:07.329Z,0.99
2022-11-29T05:53:55.826Z,1.01
2022-11-29T05:56:53.590Z,0.96
2022-11-29T05:59:27.644Z,0.94
2022-11-29T06:02:04.208Z,0.89
2022-11-29T06:04:45.907Z,0.89
2022-11-29T06:08:01.443Z,0.95
2022-11-29T06:10:35.124Z,0.91
2022-11-29T06:13:04.629Z,0.87
2022-11-29T06:15:48.669Z,0.89
2022-11-29T06:18:26.773Z,0.83
2022-11-29T06:21:12.628Z,0.87
2022-11-29T06:23:48.721Z,0.88
2022-11-29T06:26:29.299Z,0.86
2022-11-29T06:29:01.885Z,0.86
2022-11-29T06:31:37.908Z,0.79
2022-11-29T06:34:10.458Z,0.85
2022-11-29T06:36:48.606Z,0.82
2022-11-29T06:39:15.487Z,0.89
2022-11-29T06:41:42.356Z,0.92
2022-11-29T06:44:10.426Z,0.92
2022-11-29T06:46:50.774Z,0.91
2022-11-29T06:49:39.130Z,0.84
2022-11-29T06:52:21.134Z,0.87
2022-11-29T06:55:06.130Z,0.88
2022-11-29T06:58:01.004Z,0.89
2022-11-29T07:00:49.657Z,0.86
2022-11-29T07:03:41.722Z,0.86
2022-11-29T07:06:21.055Z,0.87
2022-11-29T07:08:52.506Z,0.84
2022-11-29T07:11:19.501Z,0.88
2022-11-29T07:13:46.470Z,0.90
2022-11-29T07:17:26.912Z,0.92
2022-11-29T07:20:32.285Z,0.92
2022-11-29T07:23:15.723Z,0.89
2022-11-29T07:26:07.769Z,0.90
2022-11-29T07:29:01.816Z,0.90
2022-11-29T07:31:31.562Z,0.91
2022-11-29T07:34:13.313Z,0.90
2022-11-29T07:37:15.405Z,0.83
2022-11-29T07:39:48.771Z,0.84
2022-11-29T07:42:59.581Z,0.79
2022-11-29T07:45:32.356Z,0.84
2022-11-29T07:47:59.733Z,0.86
2022-11-29T07:50:27.423Z,0.82
2022-11-29T07:52:55.455Z,0.81
2022-11-29T07:55:25.686Z,0.76
2022-11-29T07:57:53.195Z,0.77
2022-11-29T08:00:20.683Z,0.72
2022-11-29T08:02:49.001Z,0.73
2022-11-29T08:05:16.205Z,0.72
2022-11-29T08:07:43.218Z,0.70
2022-11-29T08:10:15.469Z,0.67
2022-11-29T08:12:48.061Z,0.67
2022-11-29T08:15:14.998Z,0.67
2022-11-29T08:17:41.875Z,0.71
2022-11-29T08:20:10.572Z,0.75
2022-11-29T08:22:37.375Z,0.85
2022-11-29T08:25:05.402Z,0.79
2022-11-29T08:27:32.651Z,0.81
2022-11-29T08:29:59.580Z,0.81
2022-11-29T08:32:27.398Z,0.91
2022-11-29T08:34:54.065Z,0.96
2022-11-29T08:37:20.985Z,1.02
2022-11-29T08:39:47.660Z,1.08
2022-11-29T08:42:14.396Z,1.11
2022-11-29T08:44:41.225Z,1.10
2022-11-29T08:47:28.467Z,1.12
2022-11-29T08:50:04.275Z,1.17
2022-11-29T08:52:54.850Z,1.19
2022-11-29T08:55:25.138Z,1.41
2022-11-29T08:57:55.599Z,1.70
2022-11-29T09:00:23.964Z,1.95
2022-11-29T09:02:50.811Z,2.33
2022-11-29T09:05:17.649Z,2.46
2022-11-29T09:07:44.472Z,2.73
2022-11-29T09:10:12.172Z,2.88
2022-11-29T09:12:40.030Z,2.97
2022-11-29T09:15:10.992Z,3.20
2022-11-29T09:17:37.950Z,3.04
2022-11-29T09:20:05.827Z,3.21
2022-11-29T09:22:32.539Z,3.22
2022-11-29T09:24:59.285Z,3.47
2022-11-29T09:27:27.773Z,3.73
2022-11-29T09:29:54.497Z,3.85
2022-11-29T09:32:21.272Z,3.75
2022-11-29T09:34:48.339Z,3.98
2022-11-29T09:37:15.138Z,4.12
2022-11-29T09:39:41.998Z,4.21
2022-11-29T09:42:34.938Z,4.63
2022-11-29T09:45:10.502Z,4.54
2022-11-29T09:47:57.834Z,4.59
2022-11-29T09:50:36.024Z,4.94
2022-11-29T09:53:23.984Z,4.73
2022-11-29T09:56:28.900Z,4.92
2022-11-29T09:59:04.840Z,4.52
2022-11-29T10:01:37.621Z,4.76
2022-11-29T10:04:12.486Z,4.95
2022-11-29T10:06:44.384Z,4.39
2022-11-29T10:09:20.420Z,4.78
2022-11-29T10:12:08.675Z,5.08
2022-11-29T10:14:46.092Z,5.43
2022-11-29T10:17:36.138Z,4.86
2022-11-29T10:20:17.689Z,5.45
2022-11-29T10:23:03.189Z,5.34
2022-11-29T10:25:35.881Z,5.41
2022-11-29T10:28:05.064Z,5.14
2022-11-29T10:30:35.339Z,5.27
2022-11-29T10:33:02.694Z,4.93
2022-11-29T10:35:29.581Z,5.07
2022-11-29T10:40:57.582Z,4.61
2022-11-29T10:43:25.569Z,4.44
2022-11-29T10:45:56.285Z,4.23
2022-11-29T10:48:27.622Z,4.56
2022-11-29T10:50:54.805Z,4.53
2022-11-29T10:53:27.468Z,4.37
2022-11-29T10:56:16.567Z,4.35
2022-11-29T10:59:19.933Z,4.55
2022-11-29T11:01:46.757Z,4.35
2022-11-29T11:04:42.843Z,4.49
2022-11-29T11:07:23.029Z,4.44
2022-11-29T11:09:53.313Z,4.39
2022-11-29T11:12:22.758Z,4.51
2022-11-29T11:14:51.503Z,4.53
2022-11-29T11:17:26.431Z,4.55
2022-11-29T11:20:04.521Z,4.68
2022-11-29T11:22:33.395Z,4.64
2022-11-29T11:25:04.427Z,4.72
2022-11-29T11:27:36.009Z,4.69
2022-11-29T11:30:07.816Z,4.72
2022-11-29T11:32:34.521Z,4.74
2022-11-29T11:35:02.392Z,4.64
2022-11-29T11:37:33.571Z,4.70
2022-11-29T11:40:19.153Z,4.60
2022-11-29T11:42:46.893Z,4.51
2022-11-29T11:45:13.552Z,4.40
2022-11-29T11:47:47.387Z,4.42
2022-11-29T11:50:17.681Z,4.38
2022-11-29T11:52:54.553Z,4.39
2022-11-29T11:55:21.207Z,4.39
2022-11-29T11:58:06.187Z,4.22
2022-11-29T12:01:08.110Z,4.18
2022-11-29T12:03:50.972Z,4.15
2022-11-29T12:06:25.506Z,4.14
2022-11-29T12:09:04.530Z,4.14
2022-11-29T12:11:48.562Z,4.21
2022-11-29T12:14:27.710Z,4.20
2022-11-29T12:17:05.414Z,4.15
2022-11-29T12:19:41.864Z,4.16
2022-11-29T12:22:16.459Z,4.12
2022-11-29T12:24:55.729Z,4.07
2022-11-29T12:27:22.470Z,4.12
2022-11-29T12:29:49.220Z,4.09
2022-11-29T12:32:24.899Z,4.04
2022-11-29T12:35:19.256Z,4.14
2022-11-29T12:38:06.030Z,4.08
2022-11-29T12:40:51.495Z,4.00
2022-11-29T12:44:00.005Z,3.95
2022-11-29T12:46:29.255Z,3.92
2022-11-29T12:49:13.713Z,3.91
2022-11-29T12:52:01.077Z,3.92
2022-11-29T12:54:46.535Z,4.03
2022-11-29T12:57:27.428Z,4.00
2022-11-29T13:00:14.725Z,4.02
2022-11-29T13:02:52.655Z,3.98
2022-11-29T13:05:38.202Z,3.98
2022-11-29T13:08:42.336Z,4.00
2022-11-29T13:11:29.571Z,3.90
2022-11-29T13:17:25.651Z,3.81
2022-11-29T13:20:14.215Z,3.84
2022-11-29T13:22:46.967Z,3.78
2022-11-29T13:25:41.729Z,3.82
2022-11-29T13:28:24.138Z,3.80
2022-11-29T13:30:52.672Z,3.88
2022-11-29T13:33:40.905Z,3.91
2022-11-29T13:36:29.152Z,3.89
2022-11-29T13:39:27.913Z,3.83
2022-11-29T13:41:57.345Z,3.81
2022-11-29T13:44:55.332Z,3.80
2022-11-29T13:47:22.609Z,3.79
2022-11-29T13:49:49.213Z,3.73
2022-11-29T13:52:48.426Z,3.81
2022-11-29T13:55:15.436Z,3.82
2022-11-29T13:58:17.464Z,3.82
2022-11-29T14:00:44.704Z,3.85
2022-11-29T14:03:23.531Z,3.84
2022-11-29T14:05:50.187Z,3.77
2022-11-29T14:08:42.492Z,3.76
2022-11-29T14:11:17.564Z,3.65
2022-11-29T14:13:48.717Z,3.56
2022-11-29T14:16:27.860Z,3.55
2022-11-29T14:19:13.124Z,3.47
2022-11-29T14:22:07.648Z,3.42
2022-11-29T14:24:37.143Z,3.37
2022-11-29T14:27:07.050Z,3.26
2022-11-29T14:29:48.954Z,3.34
2022-11-29T14:32:28.217Z,3.37
2022-11-29T14:35:11.255Z,3.25
2022-11-29T14:38:14.046Z,3.22
2022-11-29T14:40:40.713Z,3.17
2022-11-29T14:43:34.468Z,3.11
2022-11-29T14:46:29.618Z,3.08
2022-11-29T14:48:56.512Z,3.03
2022-11-29T14:51:28.832Z,2.95
2022-11-29T14:54:16.099Z,2.99
2022-11-29T14:56:44.971Z,2.92
2022-11-29T14:59:59.770Z,2.84
2022-11-29T15:02:29.525Z,2.79
2022-11-29T15:05:05.049Z,2.81
2022-11-29T15:07:32.950Z,2.76
2022-11-29T15:10:04.211Z,2.74
2022-11-29T15:12:36.216Z,2.72
2022-11-29T15:15:21.766Z,2.70
2022-11-29T15:17:48.414Z,2.67
2022-11-29T15:20:33.314Z,2.62
2022-11-29T15:23:03.360Z,2.56
2022-11-29T15:25:32.344Z,2.54
2022-11-29T15:28:06.557Z,2.47
2022-11-29T15:30:33.485Z,2.50
2022-11-29T15:33:03.473Z,2.68
2022-11-29T15:35:31.301Z,2.65
2022-11-29T15:37:58.058Z,2.52
2022-11-29T15:40:31.521Z,2.44
2022-11-29T15:43:22.519Z,2.35
2022-11-29T15:45:55.488Z,2.47
2022-11-29T15:48:23.524Z,2.38
2022-11-29T15:51:14.178Z,2.33
2022-11-29T15:53:44.898Z,2.37
2022-11-29T15:56:17.629Z,2.41
2022-11-29T15:58:46.173Z,2.44
2022-11-29T16:01:19.481Z,2.44
2022-11-29T16:03:47.232Z,2.56
2022-11-29T16:06:19.970Z,2.53
2022-11-29T16:08:49.727Z,2.49
2022-11-29T16:11:20.661Z,2.41
2022-11-29T16:14:11.950Z,2.41
2022-11-29T16:16:40.301Z,2.42
2022-11-29T16:19:31.686Z,2.38
2022-11-29T16:22:14.455Z,2.36
2022-11-29T16:25:14.851Z,2.42
2022-11-29T16:27:41.762Z,2.55
2022-11-29T16:30:20.901Z,2.54
2022-11-29T16:32:53.337Z,2.63
2022-11-29T16:35:26.243Z,2.69
2022-11-29T16:37:53.509Z,2.68
2022-11-29T16:40:25.612Z,2.73
2022-11-29T16:43:04.335Z,2.72
2022-11-29T16:45:33.945Z,2.64
2022-11-29T16:48:02.736Z,2.72
2022-11-29T16:50:31.936Z,2.93
2022-11-29T16:53:35.879Z,3.01
2022-11-29T16:56:04.265Z,3.06
2022-11-29T16:58:31.926Z,3.09
2022-11-29T17:15:46.949Z,3.23
2022-11-29T17:18:41.023Z,3.14
2022-11-29T17:26:10.182Z,3.01
2022-11-29T17:33:29.635Z,2.91
2022-11-29T17:35:56.343Z,2.85
2022-11-29T17:38:23.045Z,2.88
2022-11-29T17:40:49.748Z,2.92
2022-11-29T17:43:16.506Z,2.88
2022-11-29T17:45:44.823Z,2.88
2022-11-29T17:48:11.522Z,2.84
2022-11-29T17:50:38.997Z,2.77
2022-11-29T17:53:05.869Z,2.75
2022-11-29T17:55:32.603Z,2.85
2022-11-29T17:57:59.253Z,2.79
2022-11-29T18:00:26.140Z,2.83
2022-11-29T18:02:52.817Z,2.80
2022-11-29T18:05:19.563Z,2.80
2022-11-29T18:07:58.438Z,2.78
2022-11-29T18:10:30.061Z,2.75
2022-11-29T18:12:56.876Z,2.81
2022-11-29T18:15:23.919Z,2.79
2022-11-29T18:17:50.658Z,2.78
2022-11-29T18:20:17.364Z,2.75
2022-11-29T18:22:46.444Z,2.75
2022-11-29T18:25:37.569Z,2.73
2022-11-29T18:28:02.268Z,2.74
2022-11-29T18:30:29.087Z,2.75
2022-11-29T18:32:56.902Z,2.77
2022-11-29T18:35:23.530Z,2.71
2022-11-29T18:38:14.013Z,2.73
2022-11-29T18:40:41.297Z,2.69
2022-11-29T18:43:08.115Z,2.60
2022-11-29T18:45:36.608Z,2.52
2022-11-29T18:48:04.013Z,2.46
2022-11-29T18:50:32.465Z,2.42
2022-11-29T18:52:59.627Z,2.50
2022-11-29T18:55:26.525Z,2.56
2022-11-29T18:57:53.951Z,2.57
2022-11-29T19:00:21.160Z,2.68
2022-11-29T19:02:48.069Z,2.65
2022-11-29T19:05:15.018Z,2.62
2022-11-29T19:07:51.414Z,2.72
2022-11-29T19:10:18.366Z,2.81
2022-11-29T19:12:45.144Z,2.80
2022-11-29T19:15:11.915Z,2.83
2022-11-29T19:18:04.622Z,2.86
2022-11-29T19:20:34.342Z,2.86
2022-11-29T19:23:01.445Z,2.99
2022-11-29T19:25:28.143Z,3.15
2022-11-29T19:27:54.880Z,3.21
2022-11-29T19:30:21.653Z,3.40
2022-11-29T19:32:48.304Z,3.58
2022-11-29T19:35:15.000Z,3.58
2022-11-29T19:37:42.015Z,3.59
2022-11-29T19:40:09.127Z,3.55
2022-11-29T19:42:35.780Z,3.45
2022-11-29T19:45:16.581Z,3.46
2022-11-29T19:47:43.913Z,3.35
2022-11-29T19:50:10.659Z,3.28
2022-11-29T19:52:37.350Z,3.26
2022-11-29T19:55:04.159Z,3.22
2022-11-29T19:57:30.878Z,3.18
2022-11-29T19:59:57.513Z,3.11
2022-11-29T20:02:24.379Z,3.04
2022-11-29T20:04:51.831Z,3.04
2022-11-29T20:07:18.626Z,3.05
2022-11-29T20:09:45.510Z,3.02
2022-11-29T20:12:12.345Z,2.99
2022-11-29T20:14:39.011Z,3.02
2022-11-29T20:17:05.853Z,3.14
2022-11-29T20:19:32.577Z,3.17
2022-11-29T20:21:59.289Z,3.23
2022-11-29T20:24:25.941Z,3.32
2022-11-29T20:26:52.682Z,3.30
2022-11-29T20:29:20.017Z,3.41
2022-11-29T20:31:50.673Z,3.27
2022-11-29T20:34:19.668Z,3.31
2022-11-29T20:37:13.865Z,3.47
2022-11-29T20:39:52.370Z,3.35
2022-11-29T20:42:56.905Z,3.30
2022-11-29T20:45:24.791Z,3.25
2022-11-29T20:48:00.840Z,3.30
2022-11-29T20:50:30.521Z,3.20
2022-11-29T20:53:29.924Z,3.23
2022-11-29T20:55:56.602Z,3.25
2022-11-29T20:58:23.656Z,3.37
2022-11-29T21:00:50.369Z,3.27
2022-11-29T21:03:18.197Z,3.33
2022-11-29T21:05:45.499Z,3.44
2022-11-29T21:08:13.479Z,3.45
2022-11-29T21:10:40.517Z,3.51
2022-11-29T21:13:08.041Z,3.50
2022-11-29T21:15:35.175Z,3.62
2022-11-29T21:18:02.112Z,3.59
2022-11-29T21:20:29.041Z,3.62
2022-11-29T21:23:03.743Z,3.69
2022-11-29T21:26:03.097Z,3.81
2022-11-29T21:28:34.990Z,3.88
2022-11-29T21:31:02.962Z,3.98
2022-11-29T21:33:30.122Z,3.88
2022-11-29T21:35:59.955Z,3.81
2022-11-29T21:38:28.836Z,3.68
2022-11-29T21:40:55.520Z,3.70
2022-11-29T21:43:43.376Z,3.72
2022-11-29T21:46:09.783Z,3.73
2022-11-29T21:48:37.805Z,3.73
2022-11-29T21:51:06.823Z,3.76
2022-11-29T21:53:35.771Z,3.93
2022-11-29T21:56:05.900Z,3.94
2022-11-29T21:58:34.648Z,3.95
2022-11-29T22:01:10.042Z,3.93
2022-11-29T22:03:37.952Z,3.92
2022-11-29T22:06:10.144Z,3.97
2022-11-29T22:08:38.976Z,3.95
2022-11-29T22:11:08.331Z,3.85
2022-11-29T22:13:36.273Z,3.78
2022-11-29T22:16:10.201Z,3.81
2022-11-29T22:18:37.400Z,3.93
2022-11-29T22:21:06.359Z,3.98
2022-11-29T22:23:34.239Z,4.04
2022-11-29T22:26:06.317Z,4.03
2022-11-29T22:28:34.722Z,4.09
2022-11-29T22:31:03.978Z,4.08
2022-11-29T22:33:31.505Z,4.04
2022-11-29T22:36:06.061Z,4.05
2022-11-29T22:38:33.424Z,4.06
2022-11-29T22:41:01.755Z,4.15
2022-11-29T22:43:30.665Z,4.14
2022-11-29T22:46:14.050Z,4.20
2022-11-29T22:48:43.973Z,4.18
2022-11-29T22:51:24.562Z,4.24
2022-11-29T22:53:53.761Z,4.12
2022-11-29T22:56:21.683Z,4.13
2022-11-29T22:58:48.640Z,4.11
2022-11-29T23:01:22.155Z,4.08
2022-11-29T23:03:54.626Z,3.99
2022-11-29T23:06:24.579Z,3.86
2022-11-29T23:08:52.823Z,3.96
2022-11-29T23:11:22.643Z,4.01
2022-11-29T23:13:49.485Z,3.90
2022-11-29T23:16:19.345Z,3.76
2022-11-29T23:18:46.357Z,3.67
2022-11-29T23:21:16.398Z,3.64
2022-11-29T23:23:43.460Z,3.51
2022-11-29T23:26:21.582Z,3.46
2022-11-29T23:28:48.994Z,3.40
2022-11-29T23:31:16.775Z,3.38
2022-11-29T23:33:44.166Z,3.44
2022-11-29T23:36:15.740Z,3.47
2022-11-29T23:38:43.105Z,3.52
2022-11-29T23:41:11.547Z,3.54
2022-11-29T23:43:40.419Z,3.58
2022-11-29T23:46:09.391Z,3.62
2022-11-29T23:48:36.235Z,3.66
2022-11-29T23:51:03.338Z,3.67
2022-11-29T23:53:30.144Z,3.72
2022-11-29T23:56:05.791Z,3.79
2022-11-29T23:58:33.817Z,4.01
